createdAt,value
2016-02-18T00:00:34.311Z,12.59
2016-02-18T00:01:34.297Z,12.54
2016-02-18T00:02:34.488Z,12.59
2016-02-18T00:03:34.255Z,12.46
2016-02-18T00:04:34.091Z,12.48
2016-02-18T00:05:34.187Z,12.44
2016-02-18T00:06:34.159Z,12.45
2016-02-18T00:07:34.130Z,12.52
2016-02-18T00:08:34.101Z,12.52
2016-02-18T00:09:34.089Z,12.45
2016-02-18T00:10:34.060Z,12.46
2016-02-18T00:11:34.032Z,12.34
2016-02-18T00:12:34.050Z,12.52
2016-02-18T00:13:33.974Z,12.38
2016-02-18T00:14:33.962Z,12.45
2016-02-18T00:15:33.948Z,12.54
2016-02-18T00:16:33.904Z,12.44
2016-02-18T00:17:33.907Z,12.51
2016-02-18T00:18:33.878Z,12.41
2016-02-18T00:19:33.833Z,12.44
2016-02-18T00:20:33.837Z,12.39
2016-02-18T00:21:33.792Z,12.41
2016-02-18T00:22:33.764Z,12.44
2016-02-18T00:23:33.735Z,12.42
2016-02-18T00:24:33.707Z,12.49
2016-02-18T00:25:33.694Z,12.42
2016-02-18T00:26:33.680Z,12.46
2016-02-18T00:27:33.637Z,12.42
2016-02-18T00:28:33.608Z,12.44
2016-02-18T00:29:33.610Z,12.41
2016-02-18T00:30:33.583Z,12.46
2016-02-18T00:31:33.538Z,12.51
2016-02-18T00:32:33.526Z,12.51
2016-02-18T00:33:33.481Z,12.44
2016-02-18T00:34:33.468Z,12.46
2016-02-18T00:35:33.440Z,12.49
2016-02-18T00:36:33.447Z,12.49
2016-02-18T00:37:33.247Z,12.34
2016-02-18T00:38:33.359Z,12.42
2016-02-18T00:39:33.345Z,12.45
2016-02-18T00:40:33.333Z,12.44
2016-02-18T00:41:33.289Z,12.45
2016-02-18T00:42:33.275Z,12.39
2016-02-18T00:43:33.232Z,12.44
2016-02-18T00:44:33.219Z,12.51
2016-02-18T00:45:33.206Z,12.48
2016-02-18T00:46:33.177Z,12.49
2016-02-18T00:47:33.149Z,12.45
2016-02-18T00:48:33.136Z,12.41
2016-02-18T00:49:33.091Z,12.46
2016-02-18T00:50:33.078Z,12.44
2016-02-18T00:51:33.034Z,12.42
2016-02-18T00:52:33.037Z,12.37
2016-02-18T00:53:33.025Z,12.46
2016-02-18T00:54:32.964Z,12.45
2016-02-18T00:55:32.936Z,12.51
2016-02-18T00:56:32.938Z,12.49
2016-02-18T00:57:32.894Z,12.48
2016-02-18T00:58:32.896Z,12.48
2016-02-18T00:59:33.102Z,12.46
2016-02-18T01:00:32.855Z,12.51
2016-02-18T01:01:32.827Z,12.49
2016-02-18T01:02:32.782Z,12.42
2016-02-18T01:03:32.755Z,12.38
2016-02-18T01:04:32.804Z,12.29
2016-02-18T01:05:32.713Z,12.27
2016-02-18T01:06:32.512Z,12.54
2016-02-18T01:07:32.645Z,12.37
2016-02-18T01:08:32.632Z,12.39
2016-02-18T01:09:32.603Z,12.45
2016-02-18T01:10:32.590Z,12.52
2016-02-18T01:11:32.562Z,12.42
2016-02-18T01:12:32.533Z,12.49
2016-02-18T01:13:32.505Z,12.44
2016-02-18T01:14:32.476Z,12.42
2016-02-18T01:15:32.447Z,12.42
2016-02-18T01:16:32.450Z,12.39
2016-02-18T01:17:32.406Z,12.38
2016-02-18T01:18:32.394Z,12.45
2016-02-18T01:19:32.349Z,12.45
2016-02-18T01:20:32.336Z,12.52
2016-02-18T01:21:32.324Z,12.46
2016-02-18T01:22:32.279Z,12.45
2016-02-18T01:23:32.266Z,12.44
2016-02-18T01:24:32.238Z,12.41
2016-02-18T01:25:32.209Z,12.37
2016-02-18T01:26:32.179Z,12.44
2016-02-18T01:27:32.198Z,12.48
2016-02-18T01:28:32.138Z,12.45
2016-02-18T01:29:32.110Z,12.33
2016-02-18T01:30:32.129Z,12.52
2016-02-18T01:31:32.068Z,12.46
2016-02-18T01:32:32.040Z,12.48
2016-02-18T01:33:32.011Z,12.49
2016-02-18T01:34:31.999Z,12.52
2016-02-18T01:35:32.001Z,12.42
2016-02-18T01:36:31.925Z,12.34
2016-02-18T01:37:31.928Z,12.45
2016-02-18T01:38:31.884Z,12.48
2016-02-18T01:39:31.856Z,12.46
2016-02-18T01:40:31.843Z,12.46
2016-02-18T01:41:31.830Z,12.44
2016-02-18T01:42:31.786Z,12.38
2016-02-18T01:43:31.757Z,12.49
2016-02-18T01:44:31.729Z,12.45
2016-02-18T01:45:31.700Z,12.48
2016-02-18T01:46:31.702Z,12.52
2016-02-18T01:47:31.658Z,12.49
2016-02-18T01:48:31.630Z,12.3
2016-02-18T01:49:31.602Z,12.34
2016-02-18T01:50:31.589Z,12.45
2016-02-18T01:51:31.575Z,12.52
2016-02-18T01:52:31.532Z,12.48
2016-02-18T01:53:31.518Z,12.38
2016-02-18T01:54:31.522Z,12.45
2016-02-18T01:55:31.461Z,12.45
2016-02-18T01:56:31.698Z,12.38
2016-02-18T01:57:31.420Z,12.42
2016-02-18T01:58:31.391Z,12.41
2016-02-18T01:59:31.362Z,12.45
2016-02-18T02:00:31.365Z,12.42
2016-02-18T02:01:31.460Z,12.44
2016-02-18T02:02:31.294Z,12.33
2016-02-18T02:03:31.268Z,12.31
2016-02-18T02:04:31.210Z,12.44
2016-02-18T02:05:31.170Z,12.46
2016-02-18T02:06:31.145Z,12.46
2016-02-18T02:07:31.097Z,12.33
2016-02-18T02:08:31.095Z,12.42
2016-02-18T02:09:31.045Z,12.31
2016-02-18T02:10:31.013Z,12.51
2016-02-18T02:11:30.980Z,12.38
2016-02-18T02:12:30.950Z,12.45
2016-02-18T02:13:30.936Z,12.44
2016-02-18T02:14:30.906Z,12.44
2016-02-18T02:15:30.860Z,12.33
2016-02-18T02:16:30.862Z,12.42
2016-02-18T02:17:30.816Z,12.44
2016-02-18T02:18:30.803Z,12.44
2016-02-18T02:19:30.804Z,12.37
2016-02-18T02:20:30.760Z,12.45
2016-02-18T02:21:30.715Z,12.33
2016-02-18T02:22:30.718Z,12.44
2016-02-18T02:23:30.658Z,12.31
2016-02-18T02:24:30.645Z,12.34
2016-02-18T02:25:30.632Z,12.33
2016-02-18T02:26:30.588Z,12.37
2016-02-18T02:27:30.574Z,12.31
2016-02-18T02:28:30.562Z,12.31
2016-02-18T02:29:30.518Z,12.37
2016-02-18T02:30:30.489Z,12.3
2016-02-18T02:31:30.492Z,12.34
2016-02-18T02:32:30.448Z,12.49
2016-02-18T02:33:30.419Z,12.34
2016-02-18T02:34:30.407Z,12.38
2016-02-18T02:35:30.362Z,12.34
2016-02-18T02:36:30.349Z,12.39
2016-02-18T02:37:30.336Z,12.44
2016-02-18T02:38:30.292Z,12.45
2016-02-18T02:39:30.279Z,12.44
2016-02-18T02:40:30.267Z,12.42
2016-02-18T02:41:30.253Z,12.34
2016-02-18T02:42:30.194Z,12.37
2016-02-18T02:43:30.180Z,12.31
2016-02-18T02:44:30.152Z,12.3
2016-02-18T02:45:30.123Z,12.34
2016-02-18T02:46:30.094Z,12.26
2016-02-18T02:47:30.097Z,12.33
2016-02-18T02:48:30.053Z,12.37
2016-02-18T02:49:30.056Z,12.37
2016-02-18T02:50:29.996Z,12.31
2016-02-18T02:51:29.983Z,12.34
2016-02-18T02:52:29.954Z,12.34
2016-02-18T02:53:29.926Z,12.37
2016-02-18T02:54:29.897Z,12.31
2016-02-18T02:55:29.885Z,12.29
2016-02-18T02:56:29.872Z,12.33
2016-02-18T02:57:29.843Z,12.39
2016-02-18T02:58:30.065Z,12.37
2016-02-18T02:59:29.771Z,12.33
2016-02-18T03:00:29.821Z,12.34
2016-02-18T03:01:29.729Z,12.33
2016-02-18T03:02:29.701Z,12.34
2016-02-18T03:03:29.751Z,12.37
2016-02-18T03:04:29.659Z,12.34
2016-02-18T03:05:29.631Z,12.38
2016-02-18T03:06:29.618Z,12.33
2016-02-18T03:07:29.590Z,12.33
2016-02-18T03:08:29.576Z,12.41
2016-02-18T03:09:29.595Z,12.37
2016-02-18T03:10:29.548Z,12.37
2016-02-18T03:11:29.473Z,12.37
2016-02-18T03:12:29.475Z,12.33
2016-02-18T03:13:29.414Z,12.31
2016-02-18T03:14:29.402Z,12.34
2016-02-18T03:15:29.389Z,12.37
2016-02-18T03:16:29.345Z,12.37
2016-02-18T03:17:29.316Z,12.37
2016-02-18T03:18:29.303Z,12.37
2016-02-18T03:19:29.290Z,12.34
2016-02-18T03:20:29.261Z,12.34
2016-02-18T03:21:29.233Z,12.3
2016-02-18T03:22:29.220Z,12.37
2016-02-18T03:23:29.192Z,12.31
2016-02-18T03:24:29.147Z,12.3
2016-02-18T03:25:29.166Z,12.31
2016-02-18T03:26:29.091Z,12.37
2016-02-18T03:27:29.108Z,12.34
2016-02-18T03:28:29.065Z,12.34
2016-02-18T03:29:29.021Z,12.3
2016-02-18T03:30:28.992Z,12.33
2016-02-18T03:31:28.980Z,12.3
2016-02-18T03:32:28.951Z,12.31
2016-02-18T03:33:28.938Z,12.31
2016-02-18T03:34:28.894Z,12.31
2016-02-18T03:35:28.865Z,12.31
2016-02-18T03:36:28.852Z,12.31
2016-02-18T03:37:28.824Z,12.34
2016-02-18T03:38:28.795Z,12.37
2016-02-18T03:39:28.782Z,12.37
2016-02-18T03:40:28.816Z,12.37
2016-02-18T03:41:28.741Z,12.29
2016-02-18T03:42:28.712Z,12.29
2016-02-18T03:43:28.699Z,12.31
2016-02-18T03:44:28.654Z,12.31
2016-02-18T03:45:28.626Z,12.3
2016-02-18T03:46:28.614Z,12.33
2016-02-18T03:47:28.601Z,12.34
2016-02-18T03:48:28.572Z,12.34
2016-02-18T03:49:28.543Z,12.29
2016-02-18T03:50:28.499Z,12.33
2016-02-18T03:51:28.470Z,12.3
2016-02-18T03:52:28.472Z,12.2
2016-02-18T03:53:28.461Z,12.29
2016-02-18T03:54:28.416Z,12.33
2016-02-18T03:55:28.388Z,12.27
2016-02-18T03:56:28.359Z,12.26
2016-02-18T03:57:28.330Z,12.31
2016-02-18T03:58:28.333Z,12.26
2016-02-18T03:59:28.273Z,12.3
2016-02-18T04:00:28.526Z,12.29
2016-02-18T04:01:28.247Z,12.33
2016-02-18T04:02:28.218Z,12.26
2016-02-18T04:03:28.174Z,12.29
2016-02-18T04:04:28.209Z,12.29
2016-02-18T04:05:28.118Z,12.29
2016-02-18T04:06:28.105Z,12.29
2016-02-18T04:07:28.124Z,12.26
2016-02-18T04:08:28.080Z,12.29
2016-02-18T04:09:28.035Z,12.29
2016-02-18T04:10:28.022Z,12.23
2016-02-18T04:11:28.010Z,12.29
2016-02-18T04:12:27.966Z,12.3
2016-02-18T04:13:27.999Z,12.29
2016-02-18T04:14:27.908Z,12.29
2016-02-18T04:15:27.895Z,12.3
2016-02-18T04:16:27.851Z,12.27
2016-02-18T04:17:27.837Z,12.27
2016-02-18T04:18:27.826Z,12.26
2016-02-18T04:19:27.782Z,12.29
2016-02-18T04:20:27.752Z,12.29
2016-02-18T04:21:27.740Z,12.34
2016-02-18T04:22:27.711Z,12.31
2016-02-18T04:23:27.682Z,12.37
2016-02-18T04:24:27.669Z,12.3
2016-02-18T04:25:27.625Z,12.26
2016-02-18T04:26:27.628Z,12.29
2016-02-18T04:27:27.631Z,12.27
2016-02-18T04:28:27.556Z,12.29
2016-02-18T04:29:27.542Z,12.27
2016-02-18T04:30:27.514Z,12.31
2016-02-18T04:31:27.500Z,12.2
2016-02-18T04:32:27.472Z,12.38
2016-02-18T04:33:27.458Z,12.31
2016-02-18T04:34:27.431Z,12.26
2016-02-18T04:35:27.403Z,12.27
2016-02-18T04:36:27.358Z,12.24
2016-02-18T04:37:27.345Z,12.31
2016-02-18T04:38:27.316Z,12.24
2016-02-18T04:39:27.288Z,12.27
2016-02-18T04:40:27.274Z,12.23
2016-02-18T04:41:27.246Z,12.29
2016-02-18T04:42:27.219Z,12.24
2016-02-18T04:43:27.188Z,12.29
2016-02-18T04:44:27.177Z,12.27
2016-02-18T04:45:27.149Z,12.27
2016-02-18T04:46:27.338Z,12.31
2016-02-18T04:47:27.106Z,12.3
2016-02-18T04:48:27.077Z,12.27
2016-02-18T04:49:27.034Z,12.29
2016-02-18T04:50:27.020Z,12.23
2016-02-18T04:51:27.023Z,12.21
2016-02-18T04:52:27.635Z,12.21
2016-02-18T04:53:26.966Z,12.23
2016-02-18T04:54:26.923Z,12.24
2016-02-18T04:55:26.909Z,12.13
2016-02-18T04:56:26.865Z,12.21
2016-02-18T04:57:26.836Z,12.24
2016-02-18T04:58:26.839Z,12.2
2016-02-18T04:59:26.810Z,12.29
2016-02-18T05:00:26.766Z,12.16
2016-02-18T05:01:26.754Z,12.13
2016-02-18T05:02:26.725Z,12.24
2016-02-18T05:03:26.739Z,12.19
2016-02-18T05:04:27.183Z,12.23
2016-02-18T05:05:26.704Z,12.29
2016-02-18T05:06:26.614Z,12.3
2016-02-18T05:07:26.460Z,12.24
2016-02-18T05:08:26.555Z,12.2
2016-02-18T05:09:26.558Z,12.26
2016-02-18T05:10:26.531Z,12.24
2016-02-18T05:11:26.486Z,12.23
2016-02-18T05:12:26.458Z,12.21
2016-02-18T05:13:26.445Z,12.16
2016-02-18T05:14:26.416Z,12.31
2016-02-18T05:15:26.393Z,12.3
2016-02-18T05:16:26.363Z,12.23
2016-02-18T05:17:26.335Z,12.3
2016-02-18T05:18:26.337Z,12.23
2016-02-18T05:19:26.294Z,12.23
2016-02-18T05:20:26.266Z,12.23
2016-02-18T05:21:26.237Z,12.2
2016-02-18T05:22:26.209Z,12.16
2016-02-18T05:23:26.179Z,12.19
2016-02-18T05:24:26.167Z,12.24
2016-02-18T05:25:26.153Z,12.27
2016-02-18T05:26:26.140Z,12.16
2016-02-18T05:27:26.097Z,12.23
2016-02-18T05:28:26.084Z,12.2
2016-02-18T05:29:26.040Z,12.16
2016-02-18T05:30:26.011Z,12.26
2016-02-18T05:31:26.014Z,12.26
2016-02-18T05:32:25.953Z,12.15
2016-02-18T05:33:25.956Z,12.19
2016-02-18T05:34:25.927Z,12.11
2016-02-18T05:35:25.883Z,12.2
2016-02-18T05:36:25.872Z,12.2
2016-02-18T05:37:25.874Z,12.13
2016-02-18T05:38:25.814Z,12.24
2016-02-18T05:39:25.629Z,12.11
2016-02-18T05:40:25.772Z,12.11
2016-02-18T05:41:25.744Z,12.13
2016-02-18T05:42:25.746Z,12.19
2016-02-18T05:43:25.718Z,12.13
2016-02-18T05:44:25.657Z,12.15
2016-02-18T05:45:25.645Z,12.16
2016-02-18T05:46:25.633Z,12.13
2016-02-18T05:47:25.588Z,12.15
2016-02-18T05:48:25.825Z,12.09
2016-02-18T05:49:25.531Z,12.19
2016-02-18T05:50:25.534Z,12.2
2016-02-18T05:51:25.504Z,12.2
2016-02-18T05:52:25.460Z,12.15
2016-02-18T05:53:25.526Z,12.21
2016-02-18T05:54:25.404Z,12.26
2016-02-18T05:55:25.407Z,12.23
2016-02-18T05:56:25.378Z,12.23
2016-02-18T05:57:25.334Z,12.19
2016-02-18T05:58:25.320Z,12.24
2016-02-18T05:59:25.308Z,12.19
2016-02-18T06:00:25.279Z,12.23
2016-02-18T06:01:25.094Z,12.24
2016-02-18T06:02:25.254Z,12.15
2016-02-18T06:03:25.178Z,12.2
2016-02-18T06:04:25.165Z,12.13
2016-02-18T06:05:25.171Z,12.21
2016-02-18T06:06:25.112Z,12.27
2016-02-18T06:07:25.099Z,12.21
2016-02-18T06:08:24.960Z,12.19
2016-02-18T06:09:24.307Z,12.16
2016-02-18T06:10:25.028Z,12.19
2016-02-18T06:11:24.984Z,12.16
2016-02-18T06:12:24.957Z,12.2
2016-02-18T06:13:24.974Z,12.19
2016-02-18T06:14:24.931Z,12.2
2016-02-18T06:15:24.901Z,12.12
2016-02-18T06:16:24.889Z,12.15
2016-02-18T06:17:24.844Z,12.2
2016-02-18T06:18:24.816Z,12.23
2016-02-18T06:19:24.819Z,12.15
2016-02-18T06:20:24.759Z,12.11
2016-02-18T06:21:24.762Z,12.15
2016-02-18T06:22:24.733Z,12.21
2016-02-18T06:23:24.689Z,12.16
2016-02-18T06:24:24.675Z,12.19
2016-02-18T06:25:24.647Z,12.2
2016-02-18T06:26:24.618Z,12.06
2016-02-18T06:27:24.605Z,12.23
2016-02-18T06:28:24.562Z,12.12
2016-02-18T06:29:24.533Z,12.12
2016-02-18T06:30:24.520Z,12.2
2016-02-18T06:31:24.491Z,12.2
2016-02-18T06:32:24.463Z,12.16
2016-02-18T06:33:24.449Z,12.12
2016-02-18T06:34:24.453Z,12.11
2016-02-18T06:35:24.424Z,12.13
2016-02-18T06:36:24.411Z,12.13
2016-02-18T06:37:24.352Z,12.08
2016-02-18T06:38:24.308Z,12.12
2016-02-18T06:39:24.435Z,12.08
2016-02-18T06:40:24.282Z,12.11
2016-02-18T06:41:24.254Z,12.23
2016-02-18T06:42:24.224Z,12.19
2016-02-18T06:43:24.196Z,12.2
2016-02-18T06:44:24.182Z,12.15
2016-02-18T06:45:24.170Z,12.13
2016-02-18T06:46:24.125Z,12.12
2016-02-18T06:47:24.098Z,12.16
2016-02-18T06:48:24.084Z,12.15
2016-02-18T06:49:24.087Z,12.12
2016-02-18T06:50:24.245Z,12.09
2016-02-18T06:51:24.030Z,12.05
2016-02-18T06:52:23.986Z,12.06
2016-02-18T06:53:23.956Z,12.05
2016-02-18T06:54:23.928Z,12.09
2016-02-18T06:55:23.947Z,12.13
2016-02-18T06:56:23.872Z,12.15
2016-02-18T06:57:23.889Z,12.12
2016-02-18T06:58:23.814Z,12.15
2016-02-18T06:59:23.802Z,12.13
2016-02-18T07:00:23.757Z,12.16
2016-02-18T07:01:23.744Z,12.13
2016-02-18T07:02:23.730Z,12.16
2016-02-18T07:03:23.688Z,12.09
2016-02-18T07:04:23.658Z,12.19
2016-02-18T07:05:23.489Z,12.02
2016-02-18T07:06:23.616Z,12.19
2016-02-18T07:07:23.588Z,12.13
2016-02-18T07:08:23.576Z,12.13
2016-02-18T07:09:23.546Z,12.13
2016-02-18T07:10:23.518Z,12.09
2016-02-18T07:11:23.521Z,12.12
2016-02-18T07:12:23.477Z,12.06
2016-02-18T07:13:23.448Z,12.06
2016-02-18T07:14:23.435Z,12.11
2016-02-18T07:15:23.391Z,12.13
2016-02-18T07:16:23.362Z,12.13
2016-02-18T07:17:23.365Z,12.08
2016-02-18T07:18:23.320Z,12.08
2016-02-18T07:19:23.292Z,12.12
2016-02-18T07:20:23.295Z,12.2
2016-02-18T07:21:23.297Z,12.12
2016-02-18T07:22:23.239Z,12.15
2016-02-18T07:23:23.194Z,12.04
2016-02-18T07:24:23.165Z,12.09
2016-02-18T07:25:23.153Z,12.05
2016-02-18T07:26:23.139Z,12.13
2016-02-18T07:27:23.095Z,12.19
2016-02-18T07:28:23.066Z,12.12
2016-02-18T07:29:23.069Z,12.19
2016-02-18T07:30:23.025Z,12.23
2016-02-18T07:31:22.996Z,12.13
2016-02-18T07:32:22.983Z,12.16
2016-02-18T07:33:22.939Z,12.13
2016-02-18T07:34:22.926Z,12.12
2016-02-18T07:35:22.882Z,12.16
2016-02-18T07:36:22.994Z,12.2
2016-02-18T07:37:22.840Z,12.13
2016-02-18T07:38:22.828Z,12.13
2016-02-18T07:39:22.799Z,12.16
2016-02-18T07:40:22.771Z,12.12
2016-02-18T07:41:22.743Z,12.11
2016-02-18T07:42:22.729Z,12.15
2016-02-18T07:43:22.701Z,12.15
2016-02-18T07:44:22.673Z,12.09
2016-02-18T07:45:22.643Z,12.12
2016-02-18T07:46:22.631Z,12.19
2016-02-18T07:47:22.836Z,12.19
2016-02-18T07:48:22.589Z,12.13
2016-02-18T07:49:22.546Z,12.24
2016-02-18T07:50:22.517Z,12.15
2016-02-18T07:51:22.488Z,12.2
2016-02-18T07:52:22.490Z,12.13
2016-02-18T07:53:22.447Z,12.13
2016-02-18T07:54:22.433Z,12.2
2016-02-18T07:55:22.405Z,12.15
2016-02-18T07:56:22.360Z,12.2
2016-02-18T07:57:22.333Z,12.11
2016-02-18T07:58:22.336Z,12.15
2016-02-18T07:59:22.291Z,12.13
2016-02-18T08:00:22.294Z,12.12
2016-02-18T08:01:22.249Z,12.15
2016-02-18T08:02:22.221Z,12.12
2016-02-18T08:03:22.223Z,12.13
2016-02-18T08:04:22.179Z,12.16
2016-02-18T08:05:22.136Z,12.16
2016-02-18T08:06:22.137Z,12.15
2016-02-18T08:07:22.093Z,12.19
2016-02-18T08:08:22.066Z,12.15
2016-02-18T08:09:22.052Z,12.09
2016-02-18T08:10:22.024Z,12.15
2016-02-18T08:11:21.995Z,12.09
2016-02-18T08:12:21.982Z,12.19
2016-02-18T08:13:21.937Z,12.11
2016-02-18T08:14:21.924Z,12.13
2016-02-18T08:15:21.912Z,12.09
2016-02-18T08:16:21.884Z,12.11
2016-02-18T08:17:21.839Z,12.11
2016-02-18T08:18:21.826Z,12.11
2016-02-18T08:19:21.798Z,12.09
2016-02-18T08:20:21.785Z,12.09
2016-02-18T08:21:21.740Z,12.04
2016-02-18T08:22:21.728Z,12.11
2016-02-18T08:23:21.699Z,12.12
2016-02-18T08:24:21.670Z,12.08
2016-02-18T08:25:21.657Z,12.06
2016-02-18T08:26:21.628Z,12.16
2016-02-18T08:27:21.616Z,12.05
2016-02-18T08:28:21.587Z,12.09
2016-02-18T08:29:21.543Z,12.08
2016-02-18T08:30:21.515Z,12.23
2016-02-18T08:31:21.502Z,12.15
2016-02-18T08:32:21.489Z,12.15
2016-02-18T08:33:21.680Z,12.13
2016-02-18T08:34:21.416Z,12.12
2016-02-18T08:35:21.419Z,12.15
2016-02-18T08:36:21.375Z,12.15
2016-02-18T08:37:21.346Z,12.15
2016-02-18T08:38:21.380Z,12.21
2016-02-18T08:39:21.304Z,12.15
2016-02-18T08:40:21.260Z,12.2
2016-02-18T08:41:21.247Z,12.2
2016-02-18T08:42:21.218Z,12.23
2016-02-18T08:43:21.206Z,12.12
2016-02-18T08:44:21.209Z,12.29
2016-02-18T08:45:21.165Z,12.24
2016-02-18T08:46:21.136Z,12.27
2016-02-18T08:47:21.107Z,12.21
2016-02-18T08:48:21.079Z,12.3
2016-02-18T08:49:21.065Z,12.27
2016-02-18T08:50:21.021Z,12.24
2016-02-18T08:51:20.993Z,12.2
2016-02-18T08:52:20.980Z,12.15
2016-02-18T08:53:20.951Z,12.21
2016-02-18T08:54:20.922Z,12.33
2016-02-18T08:55:20.894Z,12.31
2016-02-18T08:56:20.867Z,12.33
2016-02-18T08:57:20.853Z,12.31
2016-02-18T08:58:20.840Z,12.31
2016-02-18T08:59:20.796Z,12.31
2016-02-18T09:00:20.767Z,12.34
2016-02-18T09:01:20.583Z,12.29
2016-02-18T09:02:20.742Z,12.3
2016-02-18T09:03:20.697Z,12.33
2016-02-18T09:04:20.669Z,12.33
2016-02-18T09:05:20.640Z,12.37
2016-02-18T09:06:20.644Z,12.33
2016-02-18T09:07:20.599Z,12.37
2016-02-18T09:08:20.586Z,12.41
2016-02-18T09:09:20.558Z,12.38
2016-02-18T09:10:20.529Z,12.34
2016-02-18T09:11:20.499Z,12.31
2016-02-18T09:12:20.487Z,12.34
2016-02-18T09:13:20.443Z,12.39
2016-02-18T09:14:20.430Z,12.31
2016-02-18T09:15:20.401Z,12.33
2016-02-18T09:16:20.373Z,12.31
2016-02-18T09:17:20.423Z,12.34
2016-02-18T09:18:20.347Z,12.34
2016-02-18T09:19:20.303Z,12.31
2016-02-18T09:20:20.274Z,12.37
2016-02-18T09:21:20.262Z,12.38
2016-02-18T09:22:20.248Z,12.42
2016-02-18T09:23:20.204Z,12.42
2016-02-18T09:24:20.176Z,12.46
2016-02-18T09:25:20.178Z,12.49
2016-02-18T09:26:20.134Z,12.49
2016-02-18T09:27:20.105Z,12.41
2016-02-18T09:28:20.078Z,12.51
2016-02-18T09:29:20.080Z,12.49
2016-02-18T09:30:20.036Z,12.44
2016-02-18T09:31:20.007Z,12.54
2016-02-18T09:32:19.994Z,12.44
2016-02-18T09:33:19.950Z,12.45
2016-02-18T09:34:19.922Z,12.49
2016-02-18T09:35:19.939Z,12.49
2016-02-18T09:36:19.895Z,12.46
2016-02-18T09:37:19.866Z,12.52
2016-02-18T09:38:19.838Z,12.45
2016-02-18T09:39:19.810Z,12.41
2016-02-18T09:40:19.797Z,12.57
2016-02-18T09:41:19.816Z,12.63
2016-02-18T09:42:19.740Z,12.54
2016-02-18T09:43:19.711Z,12.42
2016-02-18T09:44:19.683Z,12.42
2016-02-18T09:45:19.669Z,12.45
2016-02-18T09:46:19.672Z,12.56
2016-02-18T09:47:19.628Z,12.48
2016-02-18T09:48:19.584Z,12.54
2016-02-18T09:49:19.570Z,12.48
2016-02-18T09:50:19.558Z,12.56
2016-02-18T09:51:19.530Z,12.54
2016-02-18T09:52:19.517Z,12.59
2016-02-18T09:53:19.457Z,12.52
2016-02-18T09:54:19.444Z,12.63
2016-02-18T09:55:19.415Z,12.48
2016-02-18T09:56:19.403Z,12.62
2016-02-18T09:57:19.358Z,12.57
2016-02-18T09:58:19.345Z,12.52
2016-02-18T09:59:19.394Z,12.57
2016-02-18T10:00:19.319Z,12.59
2016-02-18T10:01:19.276Z,12.56
2016-02-18T10:02:19.247Z,12.6
2016-02-18T10:03:19.218Z,12.63
2016-02-18T10:04:19.205Z,12.62
2016-02-18T10:05:19.177Z,12.67
2016-02-18T10:06:19.147Z,12.69
2016-02-18T10:07:19.135Z,12.6
2016-02-18T10:08:19.091Z,12.67
2016-02-18T10:09:19.077Z,12.62
2016-02-18T10:10:19.049Z,12.67
2016-02-18T10:11:19.068Z,12.63
2016-02-18T10:12:19.024Z,12.67
2016-02-18T10:13:19.011Z,12.7
2016-02-18T10:14:18.951Z,12.7
2016-02-18T10:15:18.922Z,12.67
2016-02-18T10:16:18.909Z,12.77
2016-02-18T10:17:18.896Z,12.64
2016-02-18T10:18:18.852Z,12.69
2016-02-18T10:19:18.824Z,12.67
2016-02-18T10:20:18.811Z,12.67
2016-02-18T10:21:18.782Z,12.64
2016-02-18T10:22:18.768Z,12.75
2016-02-18T10:23:18.772Z,12.74
2016-02-18T10:24:18.743Z,12.82
2016-02-18T10:25:18.699Z,12.77
2016-02-18T10:26:18.654Z,12.77
2016-02-18T10:27:18.642Z,12.71
2016-02-18T10:28:18.629Z,12.79
2016-02-18T10:29:18.584Z,12.71
2016-02-18T10:30:18.806Z,12.74
2016-02-18T10:31:18.543Z,12.75
2016-02-18T10:32:18.515Z,12.75
2016-02-18T10:33:18.502Z,12.74
2016-02-18T10:34:18.489Z,12.7
2016-02-18T10:35:18.601Z,12.82
2016-02-18T10:36:18.417Z,12.74
2016-02-18T10:37:18.466Z,12.78
2016-02-18T10:38:18.375Z,12.74
2016-02-18T10:39:18.361Z,12.84
2016-02-18T10:40:18.364Z,12.87
2016-02-18T10:41:18.366Z,12.75
2016-02-18T10:42:18.277Z,12.78
2016-02-18T10:43:18.247Z,12.75
2016-02-18T10:44:18.235Z,12.88
2016-02-18T10:45:18.238Z,12.79
2016-02-18T10:46:18.177Z,12.77
2016-02-18T10:47:18.165Z,12.84
2016-02-18T10:48:18.323Z,12.81
2016-02-18T10:49:18.107Z,12.77
2016-02-18T10:50:18.094Z,12.85
2016-02-18T10:51:18.081Z,12.89
2016-02-18T10:52:18.084Z,12.95
2016-02-18T10:53:18.024Z,12.93
2016-02-18T10:54:17.996Z,12.87
2016-02-18T10:55:17.968Z,12.87
2016-02-18T10:56:17.939Z,12.85
2016-02-18T10:57:17.926Z,12.89
2016-02-18T10:58:17.897Z,12.89
2016-02-18T10:59:17.853Z,12.93
2016-02-18T11:00:17.839Z,12.96
2016-02-18T11:01:17.812Z,12.97
2016-02-18T11:02:17.643Z,12.89
2016-02-18T11:03:17.770Z,12.99
2016-02-18T11:04:17.757Z,12.93
2016-02-18T11:05:17.729Z,12.97
2016-02-18T11:06:17.700Z,13.02
2016-02-18T11:07:17.687Z,13.03
2016-02-18T11:08:17.665Z,13.03
2016-02-18T11:09:17.609Z,13.03
2016-02-18T11:10:17.568Z,13.07
2016-02-18T11:11:17.371Z,13.06
2016-02-18T11:12:17.504Z,13.11
2016-02-18T11:13:17.468Z,13.09
2016-02-18T11:14:17.436Z,13
2016-02-18T11:15:17.403Z,13.03
2016-02-18T11:16:17.385Z,13.04
2016-02-18T11:17:17.384Z,13.02
2016-02-18T11:18:17.370Z,13.11
2016-02-18T11:19:17.307Z,13.17
2016-02-18T11:20:17.276Z,13.27
2016-02-18T11:21:17.339Z,13.22
2016-02-18T11:22:17.232Z,13.21
2016-02-18T11:23:17.202Z,13.3
2016-02-18T11:24:17.188Z,13.17
2016-02-18T11:25:17.158Z,13.12
2016-02-18T11:26:17.129Z,13.02
2016-02-18T11:27:17.100Z,13.03
2016-02-18T11:28:17.086Z,13.06
2016-02-18T11:29:17.058Z,12.95
2016-02-18T11:30:17.028Z,13.07
2016-02-18T11:31:16.999Z,13.07
2016-02-18T11:32:17.236Z,13
2016-02-18T11:33:16.973Z,12.97
2016-02-18T11:34:16.960Z,13.03
2016-02-18T11:35:16.915Z,13.06
2016-02-18T11:36:16.887Z,13.03
2016-02-18T11:37:16.858Z,13.06
2016-02-18T11:38:16.830Z,13.04
2016-02-18T11:39:16.817Z,13.06
2016-02-18T11:40:16.804Z,13
2016-02-18T11:41:16.776Z,13.04
2016-02-18T11:42:16.747Z,12.99
2016-02-18T11:43:16.750Z,13
2016-02-18T11:44:16.736Z,12.95
2016-02-18T11:45:16.661Z,12.93
2016-02-18T11:46:16.648Z,13.04
2016-02-18T11:47:16.650Z,12.99
2016-02-18T11:48:16.608Z,13.03
2016-02-18T11:49:16.578Z,13.04
2016-02-18T11:50:16.580Z,13.03
2016-02-18T11:51:16.522Z,13.04
2016-02-18T11:52:16.508Z,13.09
2016-02-18T11:53:16.496Z,13.15
2016-02-18T11:54:16.466Z,13.11
2016-02-18T11:55:16.438Z,13.09
2016-02-18T11:56:16.441Z,13.17
2016-02-18T11:57:16.381Z,13.12
2016-02-18T11:58:16.368Z,13.17
2016-02-18T11:59:16.340Z,13.15
2016-02-18T12:00:16.327Z,13.2
2016-02-18T12:01:16.298Z,13.21
2016-02-18T12:02:16.285Z,13.21
2016-02-18T12:03:16.240Z,13.17
2016-02-18T12:04:16.228Z,13.11
2016-02-18T12:05:16.199Z,13.24
2016-02-18T12:06:16.170Z,13.29
2016-02-18T12:07:16.159Z,13.22
2016-02-18T12:08:16.129Z,13.25
2016-02-18T12:09:16.335Z,13.24
2016-02-18T12:10:16.072Z,13.25
2016-02-18T12:11:16.059Z,13.22
2016-02-18T12:12:16.047Z,13.3
2016-02-18T12:13:16.003Z,13.29
2016-02-18T12:14:15.973Z,13.32
2016-02-18T12:15:15.976Z,13.29
2016-02-18T12:16:15.932Z,13.36
2016-02-18T12:17:15.903Z,13.29
2016-02-18T12:18:16.156Z,13.36
2016-02-18T12:19:15.862Z,13.29
2016-02-18T12:20:15.849Z,13.36
2016-02-18T12:21:15.836Z,13.43
2016-02-18T12:22:15.792Z,13.54
2016-02-18T12:23:15.779Z,13.44
2016-02-18T12:24:15.750Z,13.49
2016-02-18T12:25:15.721Z,13.56
2016-02-18T12:26:15.710Z,13.61
2016-02-18T12:27:15.665Z,13.73
2016-02-18T12:28:15.652Z,13.71
2016-02-18T12:29:15.624Z,13.77
2016-02-18T12:30:15.610Z,13.81
2016-02-18T12:31:15.566Z,13.91
2016-02-18T12:32:15.553Z,13.83
2016-02-18T12:33:15.556Z,13.8
2016-02-18T12:34:15.512Z,13.88
2016-02-18T12:35:15.484Z,13.89
2016-02-18T12:36:15.471Z,14.04
2016-02-18T12:37:15.442Z,14.07
2016-02-18T12:38:15.413Z,14.06
2016-02-18T12:39:15.415Z,14.04
2016-02-18T12:40:15.356Z,14.02
2016-02-18T12:41:15.359Z,14.02
2016-02-18T12:42:15.315Z,14.07
2016-02-18T12:43:15.286Z,14.17
2016-02-18T12:44:15.288Z,14.25
2016-02-18T12:45:15.245Z,14.37
2016-02-18T12:46:15.232Z,14.32
2016-02-18T12:47:15.219Z,14.28
2016-02-18T12:48:15.190Z,14.35
2016-02-18T12:49:15.161Z,14.37
2016-02-18T12:50:15.133Z,14.39
2016-02-18T12:51:15.119Z,14.39
2016-02-18T12:52:15.091Z,14.49
2016-02-18T12:53:15.079Z,14.53
2016-02-18T12:54:15.081Z,14.5